createdAt,value
2019-05-18T00:00:21.031Z,11.70
2019-05-18T00:02:50.864Z,11.70
2019-05-18T00:05:20.707Z,11.60
2019-05-18T00:07:50.413Z,11.60
2019-05-18T00:10:20.409Z,11.60
2019-05-18T00:12:50.151Z,11.60
2019-05-18T00:15:20.143Z,11.60
2019-05-18T00:17:50.073Z,11.60
2019-05-18T00:20:19.844Z,11.60
2019-05-18T00:22:49.660Z,11.60
2019-05-18T00:25:19.543Z,11.60
2019-05-18T00:27:49.469Z,11.60
2019-05-18T00:30:19.284Z,11.60
2019-05-18T00:32:49.115Z,11.60
2019-05-18T00:35:18.990Z,11.60
2019-05-18T00:37:48.872Z,11.60
2019-05-18T00:40:18.905Z,11.60
2019-05-18T00:42:48.748Z,11.50
2019-05-18T00:45:18.740Z,11.50
2019-05-18T00:47:48.570Z,11.40
2019-05-18T00:50:18.907Z,11.40
2019-05-18T00:52:48.654Z,11.30
2019-05-18T00:55:18.479Z,11.30
2019-05-18T00:57:48.413Z,11.30
2019-05-18T01:00:18.895Z,11.20
2019-05-18T01:02:48.738Z,11.20
2019-05-18T01:05:18.649Z,11.10
2019-05-18T01:07:48.589Z,11.10
2019-05-18T01:10:18.493Z,11.00
2019-05-18T01:12:48.409Z,11.00
2019-05-18T01:15:18.321Z,11.00
2019-05-18T01:17:56.983Z,11.00
2019-05-18T01:20:19.905Z,10.90
2019-05-18T01:22:49.708Z,10.90
2019-05-18T01:25:19.541Z,10.80
2019-05-18T01:27:49.480Z,10.80
2019-05-18T01:30:19.759Z,10.70
2019-05-18T01:32:49.527Z,10.60
2019-05-18T01:35:19.371Z,10.50
2019-05-18T01:37:49.298Z,10.50
2019-05-18T01:46:53.257Z,10.30
2019-05-18T01:49:23.152Z,10.20
2019-05-18T01:51:52.979Z,10.20
2019-05-18T01:54:22.794Z,10.20
2019-05-18T01:56:52.691Z,10.20
2019-05-18T01:59:22.981Z,10.10
2019-05-18T02:01:52.767Z,10.10
2019-05-18T02:04:22.612Z,10.00
2019-05-18T02:06:52.500Z,9.90
2019-05-18T02:09:22.454Z,9.90
2019-05-18T02:11:52.310Z,9.90
2019-05-18T02:14:22.103Z,9.90
2019-05-18T02:16:52.009Z,9.80
2019-05-18T02:19:24.772Z,9.80
2019-05-18T02:21:53.854Z,9.80
2019-05-18T02:24:23.775Z,9.70
2019-05-18T02:26:53.539Z,9.60
2019-05-18T02:29:23.335Z,9.50
2019-05-18T02:31:53.207Z,9.50
2019-05-18T02:34:24.842Z,9.40
2019-05-18T02:36:54.668Z,9.40
2019-05-18T02:39:24.496Z,9.30
2019-05-18T02:41:54.836Z,9.30
2019-05-18T02:44:24.687Z,9.30
2019-05-18T02:46:54.673Z,9.30
2019-05-18T02:49:24.469Z,9.20
2019-05-18T02:51:54.370Z,9.20
2019-05-18T02:54:24.190Z,9.20
2019-05-18T02:56:54.069Z,9.20
2019-05-18T02:59:24.100Z,9.10
2019-05-18T03:01:53.926Z,9.10
2019-05-18T03:04:23.684Z,9.10
2019-05-18T03:06:53.550Z,9.10
2019-05-18T03:09:23.630Z,9.00
2019-05-18T03:11:53.448Z,9.00
2019-05-18T03:14:23.286Z,9.00
2019-05-18T03:16:53.177Z,9.00
2019-05-18T03:19:23.005Z,8.90
2019-05-18T03:21:52.867Z,8.90
2019-05-18T03:24:22.758Z,8.90
2019-05-18T03:26:52.659Z,8.90
2019-05-18T03:29:22.506Z,8.80
2019-05-18T03:31:52.329Z,8.80
2019-05-18T03:34:22.151Z,8.80
2019-05-18T03:36:52.037Z,8.80
2019-05-18T03:39:21.950Z,8.80
2019-05-18T03:41:51.742Z,8.80
2019-05-18T03:44:21.609Z,8.70
2019-05-18T03:46:51.443Z,8.70
2019-05-18T03:49:26.820Z,8.80
2019-05-18T03:51:52.786Z,8.70
2019-05-18T03:54:22.772Z,8.70
2019-05-18T03:56:52.577Z,8.70
2019-05-18T03:59:22.444Z,8.70
2019-05-18T04:01:52.255Z,8.70
2019-05-18T04:04:22.174Z,8.70
2019-05-18T04:06:52.050Z,8.70
2019-05-18T04:09:21.956Z,8.70
2019-05-18T04:11:51.721Z,8.70
2019-05-18T04:14:21.603Z,8.70
2019-05-18T04:16:51.375Z,8.70
2019-05-18T04:19:21.132Z,8.70
2019-05-18T04:21:51.029Z,8.70
2019-05-18T04:24:20.837Z,8.80
2019-05-18T04:26:50.704Z,8.80
2019-05-18T04:29:20.696Z,8.80
2019-05-18T04:31:50.518Z,8.90
2019-05-18T04:34:20.462Z,8.90
2019-05-18T04:36:50.382Z,8.90
2019-05-18T04:39:20.146Z,8.90
2019-05-18T04:41:49.918Z,9.00
2019-05-18T04:44:19.776Z,9.00
2019-05-18T04:46:50.104Z,9.00
2019-05-18T04:49:20.899Z,9.10
2019-05-18T04:51:53.796Z,9.10
2019-05-18T04:54:23.700Z,9.20
2019-05-18T04:56:53.515Z,9.30
2019-05-18T04:59:23.479Z,9.40
2019-05-18T05:01:56.721Z,9.40
2019-05-18T05:04:38.504Z,9.40
2019-05-18T05:07:08.339Z,9.50
2019-05-18T05:09:38.292Z,9.60
2019-05-18T05:12:08.366Z,9.60
2019-05-18T05:14:38.285Z,9.70
2019-05-18T05:17:08.160Z,9.80
2019-05-18T05:19:38.095Z,9.90
2019-05-18T05:22:07.994Z,10.00
2019-05-18T05:24:37.913Z,10.00
2019-05-18T05:27:07.855Z,10.10
2019-05-18T05:29:37.729Z,10.20
2019-05-18T05:32:07.606Z,10.30
2019-05-18T05:34:37.608Z,10.40
2019-05-18T05:37:08.502Z,10.40
2019-05-18T05:39:44.983Z,10.50
2019-05-18T05:42:14.755Z,10.60
2019-05-18T05:44:44.640Z,10.60
2019-05-18T05:47:14.602Z,10.70
2019-05-18T05:49:44.461Z,10.70
2019-05-18T05:52:14.329Z,10.70
2019-05-18T05:54:44.349Z,10.80
2019-05-18T05:57:14.465Z,10.80
2019-05-18T05:59:44.302Z,10.90
2019-05-18T06:02:14.255Z,10.90
2019-05-18T06:04:44.121Z,11.00
2019-05-18T06:07:14.090Z,11.00
2019-05-18T06:09:43.923Z,11.20
2019-05-18T06:12:13.743Z,11.20
2019-05-18T06:14:43.561Z,11.30
2019-05-18T06:17:13.561Z,11.30
2019-05-18T06:19:43.998Z,11.40
2019-05-18T06:22:13.845Z,11.50
2019-05-18T06:24:43.620Z,11.60
2019-05-18T06:27:13.559Z,11.70
2019-05-18T06:29:43.480Z,11.80
2019-05-18T06:32:13.502Z,12.00
2019-05-18T06:34:43.429Z,12.10
2019-05-18T06:37:13.444Z,12.30
2019-05-18T06:39:43.315Z,12.50
2019-05-18T06:42:13.239Z,12.70
2019-05-18T06:44:43.033Z,12.90
2019-05-18T06:47:12.947Z,13.00
2019-05-18T06:49:42.743Z,13.20
2019-05-18T06:52:12.727Z,13.30
2019-05-18T06:54:42.768Z,13.50
2019-05-18T06:57:13.702Z,13.60
2019-05-18T06:59:43.708Z,13.50
2019-05-18T07:02:13.392Z,13.50
2019-05-18T07:04:44.694Z,13.50
2019-05-18T07:07:14.944Z,13.60
2019-05-18T07:09:44.967Z,13.60
2019-05-18T07:12:14.856Z,13.70
2019-05-18T07:14:44.651Z,13.80
2019-05-18T07:17:15.428Z,13.80
2019-05-18T07:19:45.618Z,13.90
2019-05-18T07:22:15.431Z,14.00
2019-05-18T07:24:45.314Z,14.10
2019-05-18T07:27:15.290Z,14.10
2019-05-18T07:29:45.197Z,14.20
2019-05-18T07:32:15.191Z,14.30
2019-05-18T07:34:45.081Z,14.50
2019-05-18T07:37:14.959Z,14.70
2019-05-18T07:39:44.881Z,14.70
2019-05-18T07:42:14.771Z,14.80
2019-05-18T07:44:44.694Z,15.00
2019-05-18T07:47:14.573Z,15.10
2019-05-18T07:49:46.257Z,15.20
2019-05-18T07:52:17.321Z,15.30
2019-05-18T07:54:47.642Z,15.50
2019-05-18T07:57:17.516Z,15.60
2019-05-18T07:59:47.338Z,15.60
2019-05-18T08:02:17.229Z,15.60
2019-05-18T08:04:47.141Z,15.50
2019-05-18T08:07:16.985Z,15.40
2019-05-18T08:09:46.786Z,15.40
2019-05-18T08:12:16.624Z,15.50
2019-05-18T08:14:46.538Z,15.80
2019-05-18T08:17:16.502Z,15.90
2019-05-18T08:19:46.380Z,16.00
2019-05-18T08:22:16.271Z,16.10
2019-05-18T08:24:46.166Z,16.20
2019-05-18T08:27:16.148Z,16.20
2019-05-18T08:29:46.036Z,16.20
2019-05-18T08:32:15.937Z,16.20
2019-05-18T08:34:45.883Z,16.20
2019-05-18T08:37:15.739Z,16.20
2019-05-18T08:39:45.709Z,16.30
2019-05-18T08:42:15.605Z,16.40
2019-05-18T08:44:45.339Z,16.50
2019-05-18T08:47:15.200Z,16.50
2019-05-18T08:49:45.088Z,16.50
2019-05-18T08:52:16.822Z,16.60
2019-05-18T08:54:46.670Z,16.60
2019-05-18T08:57:16.596Z,16.80
2019-05-18T08:59:47.242Z,16.80
2019-05-18T09:02:17.084Z,16.90
2019-05-18T09:04:47.026Z,17.10
2019-05-18T09:07:16.964Z,17.40
2019-05-18T09:09:46.928Z,17.80
2019-05-18T09:12:16.787Z,18.00
2019-05-18T09:14:46.645Z,18.10
2019-05-18T09:17:16.650Z,18.30
2019-05-18T09:19:46.679Z,18.40
2019-05-18T09:22:23.261Z,18.50
2019-05-18T09:24:48.033Z,18.60
2019-05-18T09:27:17.993Z,18.70
2019-05-18T09:29:47.755Z,18.80
2019-05-18T09:32:17.651Z,18.50
2019-05-18T09:34:47.487Z,18.30
2019-05-18T09:37:17.346Z,18.30
2019-05-18T09:39:47.296Z,18.50
2019-05-18T09:42:17.639Z,18.70
2019-05-18T09:44:47.496Z,18.80
2019-05-18T09:47:17.349Z,18.70
2019-05-18T09:49:47.208Z,18.70
2019-05-18T09:52:17.051Z,18.70
2019-05-18T09:54:48.513Z,18.70
2019-05-18T09:57:18.379Z,19.00
2019-05-18T09:59:48.236Z,19.20
2019-05-18T10:02:18.121Z,19.60
2019-05-18T10:04:47.957Z,19.80
2019-05-18T10:07:17.633Z,20.20
2019-05-18T10:09:47.378Z,20.20
2019-05-18T10:12:17.003Z,20.00
2019-05-18T10:14:47.140Z,20.10
2019-05-18T10:17:17.066Z,20.10
2019-05-18T10:19:47.035Z,20.40
2019-05-18T10:22:16.949Z,21.10
2019-05-18T10:24:46.723Z,21.10
2019-05-18T10:27:16.496Z,21.10
2019-05-18T10:29:46.817Z,21.30
2019-05-18T10:32:17.023Z,21.30
2019-05-18T10:34:46.910Z,21.60
2019-05-18T10:37:16.805Z,21.70
2019-05-18T10:39:46.802Z,21.70
2019-05-18T10:42:16.689Z,21.60
2019-05-18T10:44:46.612Z,21.30
2019-05-18T10:47:16.481Z,20.60
2019-05-18T10:49:46.464Z,20.60
2019-05-18T10:52:16.296Z,20.80
2019-05-18T10:54:46.228Z,20.90
2019-05-18T10:57:16.321Z,20.90
2019-05-18T11:00:06.358Z,20.70
2019-05-18T11:02:36.279Z,20.90
2019-05-18T11:05:09.725Z,21.30
2019-05-18T11:07:39.629Z,21.60
2019-05-18T11:10:11.147Z,21.70
2019-05-18T11:12:41.454Z,21.60
2019-05-18T11:15:13.295Z,21.30
2019-05-18T11:17:43.148Z,21.20
2019-05-18T11:20:14.471Z,21.30
2019-05-18T11:22:44.348Z,21.10
2019-05-18T11:25:16.170Z,21.30
2019-05-18T11:27:46.118Z,21.40
2019-05-18T11:30:17.085Z,21.90
2019-05-18T11:32:46.962Z,22.30
2019-05-18T11:35:17.500Z,22.20
2019-05-18T11:37:47.353Z,22.20
2019-05-18T11:40:17.264Z,22.20
2019-05-18T11:42:47.181Z,22.60
2019-05-18T11:45:18.454Z,22.80
2019-05-18T11:47:48.343Z,22.50
2019-05-18T11:50:19.251Z,23.20
2019-05-18T11:52:49.097Z,23.70
2019-05-18T11:55:18.958Z,24.00
2019-05-18T11:57:48.789Z,24.00
2019-05-18T12:00:20.462Z,24.40
2019-05-18T12:02:50.286Z,24.60
2019-05-18T12:05:20.110Z,23.90
2019-05-18T12:07:50.041Z,23.70
2019-05-18T12:10:19.918Z,24.10
2019-05-18T12:12:49.788Z,24.20
2019-05-18T12:15:20.239Z,24.80
2019-05-18T12:17:50.058Z,24.70
2019-05-18T12:20:21.731Z,24.10
2019-05-18T12:22:51.548Z,24.30
2019-05-18T12:25:21.469Z,24.40
2019-05-18T12:27:51.441Z,24.50
2019-05-18T12:30:22.008Z,24.20
2019-05-18T12:32:51.946Z,24.30
2019-05-18T12:35:21.885Z,24.50
2019-05-18T12:37:52.618Z,24.20
2019-05-18T12:40:23.385Z,24.00
2019-05-18T12:42:53.195Z,23.60
2019-05-18T12:45:24.109Z,23.50
2019-05-18T12:47:54.053Z,23.50
2019-05-18T12:50:24.591Z,23.80
2019-05-18T12:52:54.498Z,24.10
2019-05-18T12:55:24.502Z,24.90
2019-05-18T12:57:54.417Z,25.20
2019-05-18T13:00:25.731Z,25.10
2019-05-18T13:02:55.576Z,25.70
2019-05-18T13:05:25.466Z,25.90
2019-05-18T13:07:55.332Z,25.60
2019-05-18T13:10:25.657Z,25.10
2019-05-18T13:12:55.524Z,24.60
2019-05-18T13:15:26.924Z,24.50
2019-05-18T13:17:56.856Z,25.20
2019-05-18T13:20:26.867Z,25.70
2019-05-18T13:22:57.514Z,26.60
2019-05-18T13:25:27.337Z,26.80
2019-05-18T13:27:57.720Z,26.50
2019-05-18T13:30:27.794Z,26.00
2019-05-18T13:32:57.705Z,25.80
2019-05-18T13:35:27.606Z,25.60
2019-05-18T13:37:57.945Z,25.60
2019-05-18T13:40:27.825Z,25.80
2019-05-18T13:42:57.743Z,26.10
2019-05-18T13:45:27.650Z,26.10
2019-05-18T13:47:57.898Z,26.50
2019-05-18T13:50:27.716Z,26.90
2019-05-18T13:52:57.702Z,26.70
2019-05-18T13:55:27.366Z,26.80
2019-05-18T13:57:57.221Z,27.10
2019-05-18T14:00:27.159Z,26.50
2019-05-18T14:02:56.881Z,26.60
2019-05-18T14:05:37.167Z,26.90
2019-05-18T14:08:07.077Z,26.70
2019-05-18T14:10:37.025Z,26.30
2019-05-18T14:13:06.920Z,26.30
2019-05-18T14:15:36.875Z,26.50
2019-05-18T14:18:06.888Z,26.30
2019-05-18T14:20:36.796Z,26.30
2019-05-18T14:23:06.730Z,26.40
2019-05-18T14:25:36.647Z,26.20
2019-05-18T14:28:06.535Z,26.50
2019-05-18T14:30:36.482Z,26.60
2019-05-18T14:33:06.322Z,26.60
2019-05-18T14:35:36.159Z,26.60
2019-05-18T14:38:06.076Z,26.50
2019-05-18T14:40:35.961Z,26.70
2019-05-18T14:43:05.898Z,26.50
2019-05-18T14:45:35.742Z,26.00
2019-05-18T14:48:05.673Z,25.50
2019-05-18T14:50:35.740Z,25.60
2019-05-18T14:53:05.694Z,26.30
2019-05-18T14:55:35.603Z,27.20
2019-05-18T14:58:05.449Z,27.60
2019-05-18T15:00:35.362Z,28.50
2019-05-18T15:03:05.263Z,28.90
2019-05-18T15:05:38.156Z,28.30
2019-05-18T15:08:06.795Z,27.70
2019-05-18T15:10:36.764Z,27.20
2019-05-18T15:19:33.247Z,26.80
2019-05-18T15:22:03.382Z,26.80
2019-05-18T15:24:35.123Z,25.60
2019-05-18T15:27:04.988Z,24.70
2019-05-18T15:29:35.267Z,24.10
2019-05-18T15:32:05.175Z,23.80
2019-05-18T15:34:34.964Z,23.40
2019-05-18T15:37:04.895Z,23.40
2019-05-18T15:39:35.237Z,23.40
2019-05-18T15:42:05.473Z,23.40
2019-05-18T15:44:35.346Z,23.50
2019-05-18T15:47:05.419Z,23.70
2019-05-18T15:49:36.220Z,23.80
2019-05-18T15:52:06.096Z,23.90
2019-05-18T15:54:36.415Z,23.90
2019-05-18T15:57:06.182Z,24.00
2019-05-18T15:59:36.061Z,24.20
2019-05-18T16:02:06.722Z,24.20
2019-05-18T16:04:36.918Z,24.20
2019-05-18T16:07:06.901Z,24.30
2019-05-18T16:09:36.962Z,24.20
2019-05-18T16:12:06.908Z,24.10
2019-05-18T16:14:36.721Z,23.70
2019-05-18T16:17:06.619Z,23.40
2019-05-18T16:19:37.449Z,23.20
2019-05-18T16:22:07.431Z,23.20
2019-05-18T16:24:37.449Z,23.10
2019-05-18T16:27:07.463Z,23.00
2019-05-18T16:29:37.295Z,23.00
2019-05-18T16:32:07.350Z,22.90
2019-05-18T16:34:37.369Z,23.00
2019-05-18T16:37:07.345Z,23.30
2019-05-18T16:39:37.249Z,24.00
2019-05-18T16:42:07.084Z,24.00
2019-05-18T16:44:37.181Z,24.00
2019-05-18T16:47:07.096Z,23.90
2019-05-18T16:49:37.000Z,24.30
2019-05-18T16:52:06.906Z,25.20
2019-05-18T16:54:36.966Z,26.20
2019-05-18T16:57:06.831Z,26.50
2019-05-18T16:59:36.671Z,26.70
2019-05-18T17:02:06.668Z,27.20
2019-05-18T17:04:36.682Z,27.40
2019-05-18T17:07:06.715Z,26.80
2019-05-18T17:09:36.729Z,26.00
2019-05-18T17:12:06.712Z,25.10
2019-05-18T17:14:36.640Z,24.00
2019-05-18T17:17:06.547Z,23.30
2019-05-18T17:19:36.526Z,23.10
2019-05-18T17:22:06.452Z,22.60
2019-05-18T17:24:36.392Z,22.40
2019-05-18T17:27:07.458Z,22.10
2019-05-18T17:29:37.704Z,21.70
2019-05-18T17:32:07.699Z,21.50
2019-05-18T17:34:37.550Z,21.00
2019-05-18T17:37:07.590Z,20.50
2019-05-18T17:39:37.597Z,20.20
2019-05-18T17:42:07.627Z,20.00
2019-05-18T17:44:37.568Z,19.90
2019-05-18T17:47:07.613Z,19.90
2019-05-18T17:49:37.504Z,19.80
2019-05-18T17:52:07.424Z,19.80
2019-05-18T17:54:37.441Z,19.80
2019-05-18T17:57:09.624Z,19.80
2019-05-18T17:59:39.463Z,19.80
2019-05-18T18:02:09.511Z,19.70
2019-05-18T18:04:39.526Z,19.70
2019-05-18T18:07:09.379Z,19.80
2019-05-18T18:09:39.742Z,19.90
2019-05-18T18:12:09.671Z,20.00
2019-05-18T18:18:39.106Z,20.10
2019-05-18T18:21:09.181Z,19.90
2019-05-18T18:23:39.145Z,19.80
2019-05-18T18:26:09.084Z,19.70
2019-05-18T18:28:38.923Z,19.70
2019-05-18T18:31:08.920Z,19.70
2019-05-18T18:33:39.026Z,19.70
2019-05-18T18:36:09.395Z,19.60
2019-05-18T18:38:39.268Z,19.50
2019-05-18T18:41:09.128Z,19.40
2019-05-18T18:43:39.080Z,19.40
2019-05-18T18:46:09.036Z,19.40
2019-05-18T18:48:39.024Z,19.40
2019-05-18T18:51:08.995Z,19.40
2019-05-18T18:53:38.958Z,19.30
2019-05-18T18:56:09.111Z,19.30
2019-05-18T18:58:38.986Z,19.30
2019-05-18T19:01:08.997Z,19.20
2019-05-18T19:03:39.027Z,19.10
2019-05-18T19:06:08.967Z,19.10
2019-05-18T19:08:38.791Z,18.90
2019-05-18T19:11:09.041Z,18.90
2019-05-18T19:13:39.433Z,18.70
2019-05-18T19:36:42.450Z,17.80
2019-05-18T19:39:12.484Z,17.70
2019-05-18T19:41:42.479Z,17.70
2019-05-18T19:44:12.323Z,17.60
2019-05-18T19:46:42.155Z,17.60
2019-05-18T19:49:11.971Z,17.60
2019-05-18T19:51:41.751Z,17.50
2019-05-18T19:54:11.603Z,17.50
2019-05-18T19:56:43.060Z,17.60
2019-05-18T19:59:13.025Z,17.60
2019-05-18T20:01:42.785Z,17.50
2019-05-18T20:04:12.627Z,17.50
2019-05-18T20:06:42.537Z,17.50
2019-05-18T20:09:12.514Z,17.50
2019-05-18T20:11:42.444Z,17.40
2019-05-18T20:14:12.523Z,17.40
2019-05-18T20:19:56.282Z,17.20
2019-05-18T20:22:26.193Z,17.20
2019-05-18T20:24:56.267Z,17.20
2019-05-18T20:27:26.230Z,17.10
2019-05-18T20:29:56.051Z,17.10
2019-05-18T20:33:06.955Z,17.10
2019-05-18T20:35:37.121Z,17.10
2019-05-18T20:38:07.071Z,17.00
2019-05-18T20:40:37.101Z,16.90
2019-05-18T20:43:06.975Z,17.00
2019-05-18T20:45:37.506Z,16.90
2019-05-18T20:48:07.413Z,16.90
2019-05-18T20:50:44.762Z,16.90
2019-05-18T20:53:14.815Z,16.90
2019-05-18T20:55:46.097Z,16.80
2019-05-18T20:58:16.020Z,16.80
2019-05-18T21:00:46.391Z,16.80
2019-05-18T21:03:16.367Z,16.80
2019-05-18T21:05:46.332Z,16.70
2019-05-18T21:08:16.306Z,16.70
2019-05-18T21:10:47.233Z,16.70
2019-05-18T21:13:17.026Z,16.70
2019-05-18T21:15:59.031Z,16.70
2019-05-18T21:18:28.748Z,16.60
2019-05-18T21:20:58.590Z,16.60
2019-05-18T21:23:28.474Z,16.60
2019-05-18T21:25:58.213Z,16.60
2019-05-18T21:28:28.078Z,16.50
2019-05-18T21:34:42.697Z,16.50
2019-05-18T21:37:14.042Z,16.50
2019-05-18T21:39:43.789Z,16.40
2019-05-18T21:42:13.638Z,16.30
2019-05-18T21:44:43.390Z,16.40
2019-05-18T21:47:13.367Z,16.30
2019-05-18T21:49:43.040Z,16.30
2019-05-18T21:52:12.834Z,16.20
2019-05-18T21:54:42.941Z,16.10
2019-05-18T21:57:12.906Z,16.10
2019-05-18T21:59:44.948Z,16.10
2019-05-18T22:02:19.053Z,16.00
2019-05-18T22:04:55.548Z,16.00
2019-05-18T22:07:28.767Z,15.90
2019-05-18T22:09:58.664Z,15.90
2019-05-18T22:12:28.616Z,15.90
2019-05-18T22:14:58.417Z,15.90
2019-05-18T22:17:28.118Z,15.80
2019-05-18T22:19:57.931Z,15.80
2019-05-18T22:22:27.707Z,15.70
2019-05-18T22:24:57.632Z,15.70
2019-05-18T22:27:27.445Z,15.60
2019-05-18T22:29:57.247Z,15.60
2019-05-18T22:32:28.261Z,15.60
2019-05-18T22:35:21.346Z,15.50
2019-05-18T23:00:31.288Z,15.20
2019-05-18T23:03:01.494Z,15.20
2019-05-18T23:05:31.366Z,15.10
2019-05-18T23:08:01.079Z,15.10
2019-05-18T23:10:30.817Z,15.10
2019-05-18T23:13:00.661Z,15.10
2019-05-18T23:15:30.528Z,15.10
2019-05-18T23:18:00.907Z,15.10
2019-05-18T23:20:30.730Z,15.10
2019-05-18T23:23:00.620Z,15.00
2019-05-18T23:25:30.480Z,15.00
2019-05-18T23:28:00.230Z,15.00
2019-05-18T23:30:30.041Z,15.00
2019-05-18T23:32:59.892Z,15.00
2019-05-18T23:35:29.817Z,15.00
2019-05-18T23:37:59.553Z,15.00
2019-05-18T23:40:29.377Z,14.90
2019-05-18T23:42:59.098Z,15.00
2019-05-18T23:45:28.840Z,15.00
2019-05-18T23:47:59.590Z,14.90
2019-05-18T23:50:29.696Z,14.90
2019-05-18T23:52:59.556Z,14.80
2019-05-18T23:55:29.312Z,14.80
2019-05-18T23:58:05.176Z,14.80
